Time;durP1;ratioP1;P1;durP2;ratioP2;P2;SDS_P1;SDS_P2;PMS_P1;PMS_P2;Temp;Humidity;BMP_temperature;BMP_pressure;BME280_temperature;BME280_humidity;BME280_pressure;Samples;Min_cycle;Max_cycle;Signal;HPM_P1;HPM_P2
2022/01/30 00:00:56;;;;;;;16.95;2.90;;;;;;;;;;5010603;28;20148;-60
2022/01/30 00:03:22;;;;;;;14.27;2.45;;;;;;;;;;5008250;28;20058;-59
2022/01/30 00:05:47;;;;;;;9.60;2.10;;;;;;;;;;4993249;28;20056;-60
2022/01/30 00:08:13;;;;;;;11.98;2.08;;;;;;;;;;5011631;28;20104;-61
2022/01/30 00:10:40;;;;;;;12.30;2.33;;;;;;;;;;5010244;28;20025;-58
2022/01/30 00:13:12;;;;;;;14.43;2.33;;;;;;;;;;5008738;28;20034;-62
2022/01/30 00:20:44;;;;;;;13.18;2.17;;;;;;;;;;4991502;28;20032;-62
2022/01/30 00:23:20;;;;;;;12.52;1.98;;;;;;;;;;5008021;28;20055;-63
2022/01/30 00:25:50;;;;;;;9.60;2.30;;;;;;;;;;5007783;28;20030;-61
2022/01/30 00:28:17;;;;;;;9.45;1.95;;;;;;;;;;4991848;28;20048;-61
2022/01/30 00:30:43;;;;;;;10.85;1.80;;;;;;;;;;5005845;28;20025;-61
2022/01/30 00:33:08;;;;;;;7.80;2.00;;;;;;;;;;5008197;28;20160;-60
2022/01/30 00:35:35;;;;;;;18.27;2.70;;;;;;;;;;5008068;28;20440;-59
2022/01/30 00:38:02;;;;;;;11.95;2.35;;;;;;;;;;5005192;28;20033;-61
2022/01/30 00:40:28;;;;;;;11.80;1.73;;;;;;;;;;5006666;28;20685;-62
2022/01/30 00:42:53;;;;;;;10.07;1.60;;;;;;;;;;5007347;28;20989;-60
2022/01/30 00:45:19;;;;;;;14.93;2.80;;;;;;;;;;5007985;28;20033;-61
2022/01/30 00:47:44;;;;;;;13.73;2.30;;;;;;;;;;5008391;28;20100;-61
2022/01/30 00:50:10;;;;;;;10.88;1.98;;;;;;;;;;5006093;28;20104;-61
2022/01/30 00:52:35;;;;;;;12.18;2.20;;;;;;;;;;5007727;28;20041;-60
2022/01/30 00:55:01;;;;;;;15.85;2.20;;;;;;;;;;4987832;28;20053;-61
2022/01/30 00:57:26;;;;;;;12.82;2.78;;;;;;;;;;4990364;28;20026;-60
2022/01/30 00:59:52;;;;;;;14.52;2.15;;;;;;;;;;5004120;28;20682;-60
2022/01/30 01:02:17;;;;;;;17.75;2.83;;;;;;;;;;5005748;28;20457;-61
2022/01/30 01:04:44;;;;;;;11.68;2.03;;;;;;;;;;5010810;28;20048;-58
2022/01/30 01:07:17;;;;;;;13.52;2.15;;;;;;;;;;5009289;28;20104;-60
2022/01/30 01:09:50;;;;;;;16.45;2.67;;;;;;;;;;4993181;28;20371;-60
2022/01/30 01:25:58;;;;;;;15.63;2.53;;;;;;;;;;5008246;28;20114;-60
2022/01/30 01:28:23;;;;;;;15.88;2.40;;;;;;;;;;5005584;28;20045;-60
2022/01/30 01:30:49;;;;;;;11.05;2.10;;;;;;;;;;4990956;28;20452;-60
2022/01/30 01:33:15;;;;;;;9.50;2.30;;;;;;;;;;4988141;28;20569;-59
2022/01/30 01:35:46;;;;;;;8.60;1.72;;;;;;;;;;490834;28;10022795;-60
2022/01/30 01:38:14;;;;;;;12.73;2.17;;;;;;;;;;5008349;28;20599;-59
2022/01/30 01:40:53;;;;;;;17.10;2.70;;;;;;;;;;2046669;28;10024624;-58
2022/01/30 01:43:20;;;;;;;10.07;1.95;;;;;;;;;;3623750;28;10001142;-61
2022/01/30 01:45:49;;;;;;;8.60;2.10;;;;;;;;;;5005723;28;20029;-60
2022/01/30 01:48:15;;;;;;;12.48;2.13;;;;;;;;;;5005438;28;20038;-60
2022/01/30 01:50:51;;;;;;;12.32;2.13;;;;;;;;;;5003293;28;20505;-60
2022/01/30 01:53:19;;;;;;;12.50;2.53;;;;;;;;;;5006628;28;20478;-61
2022/01/30 01:55:45;;;;;;;12.25;1.92;;;;;;;;;;5003452;28;20038;-60
2022/01/30 01:58:10;;;;;;;10.40;2.25;;;;;;;;;;5004843;28;20030;-61
2022/01/30 02:00:36;;;;;;;11.98;2.42;;;;;;;;;;5004161;28;20056;-61
2022/01/30 02:03:02;;;;;;;11.20;1.77;;;;;;;;;;5006074;28;20096;-58
2022/01/30 02:05:31;;;;;;;8.98;2.03;;;;;;;;;;5006701;28;20494;-60
2022/01/30 02:10:30;;;;;;;12.05;2.55;;;;;;;;;;5009161;28;20034;-59
2022/01/30 02:13:09;;;;;;;5.68;1.48;;;;;;;;;;5006795;28;20044;-60
2022/01/30 02:24:06;;;;;;;10.23;1.77;;;;;;;;;;5006612;28;20045;-59
2022/01/30 02:26:41;;;;;;;;;;;;;;;;;;5008795;28;20071;-55
2022/01/30 02:29:10;;;;;;;14.23;1.85;;;;;;;;;;5007911;28;19997;-56
2022/01/30 02:31:38;;;;;;;9.02;1.92;;;;;;;;;;5006154;28;20068;-59
2022/01/30 02:34:04;;;;;;;13.07;1.95;;;;;;;;;;4991170;28;20121;-60
2022/01/30 02:36:29;;;;;;;15.60;1.90;;;;;;;;;;5006470;28;20519;-59
2022/01/30 02:38:58;;;;;;;10.52;2.67;;;;;;;;;;5009187;28;20510;-59
2022/01/30 02:41:24;;;;;;;8.52;1.77;;;;;;;;;;5006558;28;20494;-59
2022/01/30 02:44:09;;;;;;;10.32;1.95;;;;;;;;;;5009886;28;20063;-59
2022/01/30 02:46:39;;;;;;;14.90;2.35;;;;;;;;;;5010204;28;20486;-59
2022/01/30 02:52:00;;;;;;;8.95;1.88;;;;;;;;;;5010408;28;20390;-59
2022/01/30 02:54:26;;;;;;;17.02;2.65;;;;;;;;;;5008502;28;20088;-59
2022/01/30 02:56:52;;;;;;;14.32;2.03;;;;;;;;;;5011005;28;20021;-59
2022/01/30 02:59:18;;;;;;;13.82;2.00;;;;;;;;;;5010361;28;20038;-57
2022/01/30 03:01:44;;;;;;;10.73;2.00;;;;;;;;;;5011650;28;20030;-58
2022/01/30 03:04:10;;;;;;;16.13;2.33;;;;;;;;;;5010527;28;20251;-55
2022/01/30 03:06:36;;;;;;;13.18;2.50;;;;;;;;;;5011387;28;20060;-57
2022/01/30 03:09:04;;;;;;;16.27;2.25;;;;;;;;;;5009414;28;20033;-59
2022/01/30 03:11:29;;;;;;;12.60;2.22;;;;;;;;;;5010705;28;20394;-59
2022/01/30 03:13:54;;;;;;;12.98;2.65;;;;;;;;;;5007801;28;20037;-58
2022/01/30 03:16:21;;;;;;;10.68;1.90;;;;;;;;;;5009863;28;20048;-59
2022/01/30 03:18:47;;;;;;;10.90;2.08;;;;;;;;;;5010735;28;20025;-61
2022/01/30 03:21:12;;;;;;;11.60;2.15;;;;;;;;;;5007794;28;20037;-60
2022/01/30 03:23:38;;;;;;;16.55;2.38;;;;;;;;;;5012961;28;20034;-58
2022/01/30 03:26:05;;;;;;;11.10;1.90;;;;;;;;;;4992404;28;20088;-59
2022/01/30 03:28:32;;;;;;;11.80;2.13;;;;;;;;;;5009672;28;20060;-60
2022/01/30 03:31:01;;;;;;;16.52;2.67;;;;;;;;;;5008739;28;20449;-60
2022/01/30 03:33:27;;;;;;;11.65;2.20;;;;;;;;;;5012255;28;20349;-57
2022/01/30 03:35:53;;;;;;;16.20;1.60;;;;;;;;;;5007936;28;20036;-59
2022/01/30 03:38:20;;;;;;;10.55;1.90;;;;;;;;;;5012491;28;20033;-59
2022/01/30 03:40:46;;;;;;;12.38;2.35;;;;;;;;;;4975657;28;25794;-58
2022/01/30 03:43:15;;;;;;;12.40;2.05;;;;;;;;;;384554;28;10021837;-59
2022/01/30 03:45:40;;;;;;;18.85;2.50;;;;;;;;;;5008539;28;21399;-59
2022/01/30 03:48:06;;;;;;;18.58;2.22;;;;;;;;;;5009089;28;20117;-57
2022/01/30 03:50:32;;;;;;;19.65;2.05;;;;;;;;;;5010691;28;20581;-59
2022/01/30 03:52:58;;;;;;;13.82;2.65;;;;;;;;;;5006922;28;20037;-59
2022/01/30 03:55:24;;;;;;;14.02;2.88;;;;;;;;;;4990734;28;20076;-59
2022/01/30 03:57:50;;;;;;;9.02;1.73;;;;;;;;;;4990648;28;20029;-59
2022/01/30 04:00:15;;;;;;;12.07;2.00;;;;;;;;;;4991321;28;20026;-59
2022/01/30 04:02:41;;;;;;;11.40;2.10;;;;;;;;;;5008480;28;20347;-59
2022/01/30 04:05:06;;;;;;;21.27;2.60;;;;;;;;;;5010371;28;20037;-58
2022/01/30 04:07:32;;;;;;;10.55;1.83;;;;;;;;;;5010819;28;20037;-58
2022/01/30 04:09:58;;;;;;;14.23;2.40;;;;;;;;;;5006394;28;20026;-59
2022/01/30 04:12:24;;;;;;;20.92;3.03;;;;;;;;;;5011067;28;20100;-59
2022/01/30 04:14:49;;;;;;;12.95;2.13;;;;;;;;;;5007523;28;20501;-57
2022/01/30 04:17:19;;;;;;;17.77;2.17;;;;;;;;;;5008099;28;20108;-59
2022/01/30 04:19:44;;;;;;;18.00;2.13;;;;;;;;;;5005368;28;20045;-59
2022/01/30 04:22:10;;;;;;;10.60;2.60;;;;;;;;;;5009404;28;20038;-59
2022/01/30 04:24:35;;;;;;;13.70;2.28;;;;;;;;;;5012432;28;20021;-52
2022/01/30 04:27:00;;;;;;;18.70;2.58;;;;;;;;;;5008603;28;20112;-58
2022/01/30 04:29:26;;;;;;;14.35;2.40;;;;;;;;;;5009989;28;20105;-59
2022/01/30 04:31:52;;;;;;;14.30;2.20;;;;;;;;;;5006802;28;20034;-58
2022/01/30 04:34:18;;;;;;;14.68;2.60;;;;;;;;;;5011155;28;20052;-59
2022/01/30 04:37:00;;;;;;;18.80;2.70;;;;;;;;;;5007357;28;20033;-58
2022/01/30 04:40:04;;;;;;;16.45;2.38;;;;;;;;;;5008832;28;20385;-58
2022/01/30 04:58:28;;;;;;;18.67;2.60;;;;;;;;;;5010957;28;20539;-60
2022/01/30 05:06:06;;;;;;;14.77;2.13;;;;;;;;;;5007557;28;20121;-59
2022/01/30 05:08:31;;;;;;;12.00;2.45;;;;;;;;;;5009510;28;20029;-55
2022/01/30 05:10:57;;;;;;;15.80;1.98;;;;;;;;;;5007083;28;20385;-59
2022/01/30 05:13:26;;;;;;;18.90;2.42;;;;;;;;;;5007076;28;20148;-59
2022/01/30 05:15:52;;;;;;;13.20;2.22;;;;;;;;;;5006241;28;20040;-61
2022/01/30 05:18:23;;;;;;;13.60;2.15;;;;;;;;;;5007880;28;20030;-59
2022/01/30 05:20:49;;;;;;;16.40;2.53;;;;;;;;;;5012803;28;20042;-60
2022/01/30 05:23:16;;;;;;;15.35;2.33;;;;;;;;;;5005853;28;20421;-59
2022/01/30 05:25:44;;;;;;;11.90;2.00;;;;;;;;;;5009980;28;20414;-58
2022/01/30 05:28:09;;;;;;;10.35;2.20;;;;;;;;;;5006728;28;20841;-58
2022/01/30 05:30:36;;;;;;;16.60;2.25;;;;;;;;;;5009998;28;20084;-60
2022/01/30 05:33:21;;;;;;;11.83;2.32;;;;;;;;;;1958452;28;10022639;-56
2022/01/30 05:35:46;;;;;;;18.05;3.10;;;;;;;;;;3972348;28;10001035;-59
2022/01/30 05:38:12;;;;;;;14.50;2.58;;;;;;;;;;5008010;28;20194;-59
2022/01/30 05:40:38;;;;;;;12.23;2.00;;;;;;;;;;5006159;28;20530;-60
2022/01/30 05:43:04;;;;;;;13.20;1.80;;;;;;;;;;5009617;28;20674;-59
2022/01/30 05:48:08;;;;;;;16.80;2.65;;;;;;;;;;5011827;28;20026;-59
2022/01/30 05:50:34;;;;;;;13.48;2.35;;;;;;;;;;5003985;28;20152;-60
2022/01/30 05:52:59;;;;;;;15.75;2.50;;;;;;;;;;5007660;28;20040;-59
2022/01/30 05:55:25;;;;;;;13.00;1.88;;;;;;;;;;5008168;28;20026;-59
2022/01/30 05:57:50;;;;;;;17.00;2.63;;;;;;;;;;5008210;28;20123;-59
2022/01/30 06:00:16;;;;;;;16.33;2.75;;;;;;;;;;5007207;28;20034;-47
2022/01/30 06:02:45;;;;;;;13.52;2.17;;;;;;;;;;4989133;28;20042;-51
2022/01/30 06:05:15;;;;;;;17.25;2.25;;;;;;;;;;5007825;28;20038;-50
2022/01/30 06:07:49;;;;;;;13.77;2.30;;;;;;;;;;5007713;28;20030;-46
2022/01/30 06:10:14;;;;;;;18.67;2.58;;;;;;;;;;5008129;28;20490;-47
2022/01/30 06:12:40;;;;;;;23.17;2.70;;;;;;;;;;5006294;28;20104;-50
2022/01/30 06:15:06;;;;;;;15.18;2.17;;;;;;;;;;5008404;28;20037;-50
2022/01/30 06:17:31;;;;;;;14.90;2.50;;;;;;;;;;5005845;28;20028;-48
2022/01/30 06:19:56;;;;;;;12.75;2.45;;;;;;;;;;5008652;28;20029;-48
2022/01/30 06:22:23;;;;;;;21.73;2.65;;;;;;;;;;4992153;28;20049;-49
2022/01/30 06:24:48;;;;;;;19.38;2.00;;;;;;;;;;5012531;28;21080;-49
2022/01/30 06:27:13;;;;;;;17.13;2.53;;;;;;;;;;5010686;28;20029;-47
2022/01/30 06:29:39;;;;;;;14.80;2.42;;;;;;;;;;5010532;28;20029;-51
2022/01/30 06:32:05;;;;;;;15.93;2.15;;;;;;;;;;5011394;28;20490;-50
2022/01/30 06:34:30;;;;;;;11.98;2.03;;;;;;;;;;5008916;28;20452;-47
2022/01/30 06:36:56;;;;;;;11.63;1.83;;;;;;;;;;5010367;28;20038;-50
2022/01/30 06:39:21;;;;;;;14.73;1.88;;;;;;;;;;5009551;28;20053;-49
2022/01/30 06:41:47;;;;;;;12.95;2.20;;;;;;;;;;5012200;28;20128;-49
2022/01/30 06:44:12;;;;;;;13.18;2.13;;;;;;;;;;5008763;28;20034;-50
2022/01/30 06:46:38;;;;;;;10.98;1.92;;;;;;;;;;5010640;28;20034;-47
2022/01/30 06:49:04;;;;;;;17.02;2.30;;;;;;;;;;5012356;28;20021;-49
2022/01/30 06:51:29;;;;;;;14.68;2.15;;;;;;;;;;5008310;28;20046;-49
2022/01/30 06:53:54;;;;;;;12.18;1.80;;;;;;;;;;5011340;28;20041;-47
2022/01/30 06:56:20;;;;;;;13.57;1.90;;;;;;;;;;5011483;28;20113;-51
2022/01/30 06:58:45;;;;;;;16.20;2.28;;;;;;;;;;5010469;28;20028;-49
2022/01/30 07:01:11;;;;;;;11.43;2.38;;;;;;;;;;5010105;28;20017;-51
2022/01/30 07:03:36;;;;;;;15.75;1.85;;;;;;;;;;5011416;28;20049;-50
2022/01/30 07:06:02;;;;;;;11.43;1.92;;;;;;;;;;5010734;28;20041;-48
2022/01/30 07:08:27;;;;;;;13.23;2.08;;;;;;;;;;4992981;28;20046;-48
2022/01/30 07:10:52;;;;;;;11.27;2.15;;;;;;;;;;5011672;28;20029;-49
2022/01/30 07:13:18;;;;;;;15.43;1.70;;;;;;;;;;5010919;28;20071;-49
2022/01/30 07:15:43;;;;;;;17.92;2.03;;;;;;;;;;5011443;28;20060;-48
2022/01/30 07:18:09;;;;;;;22.45;2.60;;;;;;;;;;4992245;28;20915;-45
2022/01/30 07:20:34;;;;;;;9.60;1.63;;;;;;;;;;5009838;28;20028;-49
2022/01/30 07:22:59;;;;;;;10.52;1.75;;;;;;;;;;5009390;28;20079;-48
2022/01/30 07:25:25;;;;;;;12.85;1.65;;;;;;;;;;5008369;28;20026;-46
2022/01/30 07:27:50;;;;;;;10.50;1.90;;;;;;;;;;5014454;28;20067;-47
2022/01/30 07:30:15;;;;;;;11.43;1.90;;;;;;;;;;4992260;28;20466;-51
2022/01/30 07:32:41;;;;;;;8.40;1.92;;;;;;;;;;5011575;28;20030;-49
2022/01/30 07:35:07;;;;;;;12.15;2.38;;;;;;;;;;5008205;28;20029;-48
2022/01/30 07:37:34;;;;;;;8.55;1.60;;;;;;;;;;5008140;28;20465;-50
2022/01/30 07:40:00;;;;;;;6.65;1.73;;;;;;;;;;4990583;28;20029;-50
2022/01/30 07:42:29;;;;;;;11.98;1.40;;;;;;;;;;5010510;28;20077;-51
2022/01/30 07:44:55;;;;;;;17.67;2.05;;;;;;;;;;5009233;28;20044;-46
2022/01/30 07:47:22;;;;;;;11.25;2.15;;;;;;;;;;1335771;28;10022878;-48
2022/01/30 07:49:51;;;;;;;9.02;1.85;;;;;;;;;;3976993;28;10001192;-49
2022/01/30 07:52:21;;;;;;;8.52;1.33;;;;;;;;;;5007162;28;20018;-49
2022/01/30 07:54:46;;;;;;;15.43;1.50;;;;;;;;;;5011008;28;20371;-48
2022/01/30 07:57:12;;;;;;;8.90;1.42;;;;;;;;;;5009499;28;20049;-52
2022/01/30 07:59:37;;;;;;;8.90;1.73;;;;;;;;;;5007859;28;20120;-49
2022/01/30 08:02:03;;;;;;;13.90;1.50;;;;;;;;;;5010605;28;20038;-51
2022/01/30 08:04:28;;;;;;;9.50;1.75;;;;;;;;;;5009391;28;20083;-49
2022/01/30 08:06:55;;;;;;;7.93;1.58;;;;;;;;;;5009656;28;20038;-48
2022/01/30 08:09:20;;;;;;;12.07;1.70;;;;;;;;;;5007121;28;20025;-48
2022/01/30 08:11:46;;;;;;;6.10;1.40;;;;;;;;;;5011476;28;20037;-50
2022/01/30 08:14:12;;;;;;;13.85;2.10;;;;;;;;;;5007047;28;20072;-49
2022/01/30 08:16:38;;;;;;;9.93;1.80;;;;;;;;;;5010029;28;20025;-48
2022/01/30 08:19:03;;;;;;;8.48;1.38;;;;;;;;;;5008102;28;20041;-49
2022/01/30 08:21:28;;;;;;;8.40;1.67;;;;;;;;;;5009061;28;20113;-50
2022/01/30 08:23:54;;;;;;;9.90;1.60;;;;;;;;;;5007366;28;20034;-46
2022/01/30 08:26:19;;;;;;;9.13;1.90;;;;;;;;;;5008937;28;20021;-46
2022/01/30 08:28:45;;;;;;;10.70;1.65;;;;;;;;;;5011271;28;20026;-47
2022/01/30 08:31:10;;;;;;;6.93;1.80;;;;;;;;;;5007131;28;20033;-46
2022/01/30 08:33:35;;;;;;;8.02;1.20;;;;;;;;;;5012161;28;20038;-46
2022/01/30 08:36:01;;;;;;;11.80;2.13;;;;;;;;;;5008567;28;20108;-47
2022/01/30 08:38:26;;;;;;;7.53;1.48;;;;;;;;;;5008338;28;20057;-46
2022/01/30 08:40:52;;;;;;;6.78;1.80;;;;;;;;;;5009289;28;20500;-48
2022/01/30 08:43:21;;;;;;;9.38;1.70;;;;;;;;;;4988719;28;20033;-52
2022/01/30 08:45:49;;;;;;;8.60;1.75;;;;;;;;;;5009016;28;20159;-47
2022/01/30 08:48:15;;;;;;;6.13;1.00;;;;;;;;;;5006966;28;20028;-49
2022/01/30 08:50:40;;;;;;;10.50;1.80;;;;;;;;;;5009286;28;20034;-46
2022/01/30 08:53:06;;;;;;;8.00;1.50;;;;;;;;;;5007815;28;20112;-49
2022/01/30 08:55:33;;;;;;;11.43;1.40;;;;;;;;;;4991381;28;20069;-50
2022/01/30 08:57:58;;;;;;;5.72;1.17;;;;;;;;;;4990882;28;20026;-49
2022/01/30 09:00:24;;;;;;;9.10;1.50;;;;;;;;;;4990486;28;20063;-50
2022/01/30 09:02:50;;;;;;;15.27;2.15;;;;;;;;;;5010315;28;20088;-47
2022/01/30 09:05:16;;;;;;;10.02;1.83;;;;;;;;;;5006963;28;20508;-49
2022/01/30 09:07:41;;;;;;;7.15;1.67;;;;;;;;;;5009662;28;20029;-49
2022/01/30 09:10:09;;;;;;;9.80;1.60;;;;;;;;;;5004986;28;20104;-47
2022/01/30 09:12:34;;;;;;;18.17;2.05;;;;;;;;;;5009736;28;20030;-46
2022/01/30 09:15:04;;;;;;;9.65;2.00;;;;;;;;;;5007039;28;20034;-47
2022/01/30 09:17:30;;;;;;;8.98;1.42;;;;;;;;;;4990469;28;20076;-47
2022/01/30 09:19:56;;;;;;;7.93;1.27;;;;;;;;;;5009880;28;20057;-46
2022/01/30 09:22:21;;;;;;;11.65;1.50;;;;;;;;;;5008045;28;20041;-50
2022/01/30 09:24:47;;;;;;;11.20;1.75;;;;;;;;;;4990336;28;20501;-48
2022/01/30 09:27:13;;;;;;;12.45;1.40;;;;;;;;;;5007638;28;20045;-49
2022/01/30 09:29:39;;;;;;;9.82;2.55;;;;;;;;;;4989910;28;20033;-47
2022/01/30 09:32:23;;;;;;;9.90;1.18;;;;;;;;;;903303;28;10003039;-45
2022/01/30 09:34:49;;;;;;;13.57;1.83;;;;;;;;;;5009420;28;20930;-48
2022/01/30 09:37:15;;;;;;;8.40;1.58;;;;;;;;;;5007268;28;20093;-49
2022/01/30 09:39:40;;;;;;;13.85;1.73;;;;;;;;;;5007148;28;20026;-51
2022/01/30 09:42:06;;;;;;;7.53;1.58;;;;;;;;;;5009137;28;20080;-48
2022/01/30 09:44:41;;;;;;;13.63;1.67;;;;;;;;;;5005974;28;20393;-50
2022/01/30 09:47:10;;;;;;;11.07;1.75;;;;;;;;;;5009895;28;20104;-46
2022/01/30 09:49:39;;;;;;;13.50;2.03;;;;;;;;;;5007121;28;20034;-51
2022/01/30 09:52:06;;;;;;;10.50;2.10;;;;;;;;;;5010433;28;20435;-47
2022/01/30 09:54:32;;;;;;;18.48;1.98;;;;;;;;;;5008192;28;20030;-50
2022/01/30 09:56:58;;;;;;;10.75;1.88;;;;;;;;;;5014129;28;20096;-50
2022/01/30 09:59:23;;;;;;;13.43;1.90;;;;;;;;;;5011475;28;20153;-50
2022/01/30 10:01:48;;;;;;;6.15;1.40;;;;;;;;;;5011643;28;20448;-47
2022/01/30 10:04:14;;;;;;;13.82;1.52;;;;;;;;;;5011851;28;20070;-50
2022/01/30 10:07:00;;;;;;;12.40;1.60;;;;;;;;;;5011142;28;20034;-49
2022/01/30 10:09:32;;;;;;;8.93;1.75;;;;;;;;;;5016062;28;20056;-48
2022/01/30 10:12:14;;;;;;;8.38;1.45;;;;;;;;;;4992812;28;20554;-48
2022/01/30 10:15:06;;;;;;;7.80;1.38;;;;;;;;;;5013063;28;20053;-49
2022/01/30 10:17:34;;;;;;;13.45;1.73;;;;;;;;;;5010180;28;20018;-48
2022/01/30 10:20:14;;;;;;;8.98;1.75;;;;;;;;;;5010526;28;20084;-48
2022/01/30 10:22:51;;;;;;;17.95;2.20;;;;;;;;;;5009845;28;20034;-51
2022/01/30 10:25:19;;;;;;;10.82;1.60;;;;;;;;;;5013339;28;20029;-51
2022/01/30 10:27:45;;;;;;;13.93;1.83;;;;;;;;;;4994509;28;20501;-50
2022/01/30 10:30:11;;;;;;;12.38;1.42;;;;;;;;;;5010576;28;20128;-47
2022/01/30 10:32:36;;;;;;;12.38;1.85;;;;;;;;;;5015058;28;20549;-47
2022/01/30 10:35:07;;;;;;;12.35;2.22;;;;;;;;;;5010538;28;20026;-50
2022/01/30 10:37:35;;;;;;;16.73;2.13;;;;;;;;;;5008557;28;20542;-48
2022/01/30 10:40:24;;;;;;;10.65;1.90;;;;;;;;;;5010840;28;20477;-48
2022/01/30 10:42:51;;;;;;;7.40;1.55;;;;;;;;;;5013389;28;20050;-48
2022/01/30 10:45:33;;;;;;;13.45;2.35;;;;;;;;;;5010088;28;20129;-47
2022/01/30 10:48:13;;;;;;;16.38;2.10;;;;;;;;;;5011226;28;20026;-46
2022/01/30 10:50:42;;;;;;;12.57;3.08;;;;;;;;;;5011860;28;20037;-49
2022/01/30 10:53:16;;;;;;;11.45;2.33;;;;;;;;;;5010836;28;20076;-49
2022/01/30 10:55:44;;;;;;;9.13;1.60;;;;;;;;;;5010939;28;20332;-49
2022/01/30 10:58:13;;;;;;;11.63;1.65;;;;;;;;;;5011604;28;20030;-48
2022/01/30 11:00:44;;;;;;;8.02;1.88;;;;;;;;;;5009137;28;20048;-49
2022/01/30 11:03:10;;;;;;;11.30;1.35;;;;;;;;;;5010145;28;20500;-48
2022/01/30 11:05:53;;;;;;;9.75;1.60;;;;;;;;;;5010907;28;20029;-50
2022/01/30 11:08:26;;;;;;;8.68;1.50;;;;;;;;;;5009321;28;20535;-47
2022/01/30 11:11:04;;;;;;;9.63;1.77;;;;;;;;;;5010936;28;20478;-52
2022/01/30 11:13:43;;;;;;;8.00;1.55;;;;;;;;;;5011562;28;20714;-49
2022/01/30 11:18:55;;;;;;;13.95;2.25;;;;;;;;;;5013074;28;20041;-51
2022/01/30 11:21:22;;;;;;;17.85;2.65;;;;;;;;;;5011833;28;20211;-53
2022/01/30 11:23:51;;;;;;;14.32;2.00;;;;;;;;;;5011225;28;20096;-47
2022/01/30 11:26:18;;;;;;;9.52;1.92;;;;;;;;;;5010560;28;20034;-48
2022/01/30 11:28:45;;;;;;;17.13;2.35;;;;;;;;;;4991789;28;20236;-46
2022/01/30 11:31:21;;;;;;;12.35;1.90;;;;;;;;;;4251461;28;10001170;-45
2022/01/30 11:33:48;;;;;;;15.65;2.30;;;;;;;;;;1382618;28;10002038;-48
2022/01/30 11:36:14;;;;;;;13.00;2.25;;;;;;;;;;5005911;28;20037;-47
2022/01/30 11:38:40;;;;;;;12.82;2.00;;;;;;;;;;5006288;28;20053;-47
2022/01/30 11:41:19;;;;;;;16.65;2.67;;;;;;;;;;5004552;28;20057;-45
2022/01/30 11:44:19;;;;;;;14.55;2.45;;;;;;;;;;5006986;28;20080;-49
2022/01/30 11:46:57;;;;;;;18.15;2.40;;;;;;;;;;5005535;28;20513;-48
2022/01/30 11:49:36;;;;;;;11.98;2.15;;;;;;;;;;5009458;28;20034;-52
2022/01/30 11:52:03;;;;;;;13.52;2.67;;;;;;;;;;5011674;28;20026;-49
2022/01/30 11:54:37;;;;;;;15.63;2.78;;;;;;;;;;5007987;28;20125;-46
2022/01/30 11:57:24;;;;;;;14.68;2.72;;;;;;;;;;5010130;28;20042;-48
2022/01/30 11:59:52;;;;;;;14.65;3.10;;;;;;;;;;5008737;28;20046;-52
2022/01/30 12:02:34;;;;;;;18.80;2.92;;;;;;;;;;5007804;28;20034;-49
2022/01/30 12:05:06;;;;;;;9.98;2.00;;;;;;;;;;5008636;28;20038;-47
2022/01/30 12:07:45;;;;;;;16.38;2.70;;;;;;;;;;5011362;28;20026;-51
2022/01/30 12:10:32;;;;;;;13.23;2.03;;;;;;;;;;5010700;28;20093;-46
2022/01/30 12:12:59;;;;;;;11.27;2.22;;;;;;;;;;5010337;28;20034;-51
2022/01/30 12:15:45;;;;;;;13.90;2.40;;;;;;;;;;5007136;28;20046;-51
2022/01/30 12:18:15;;;;;;;15.60;2.22;;;;;;;;;;4992140;28;20037;-47
2022/01/30 12:20:56;;;;;;;19.95;2.72;;;;;;;;;;5009842;28;20129;-50
2022/01/30 12:23:31;;;;;;;12.68;2.47;;;;;;;;;;5010377;28;20112;-46
2022/01/30 12:26:08;;;;;;;16.70;2.88;;;;;;;;;;5006432;28;20881;-49
2022/01/30 12:28:42;;;;;;;18.73;2.45;;;;;;;;;;5008711;28;20544;-48
2022/01/30 12:31:26;;;;;;;15.75;2.40;;;;;;;;;;5007340;28;20045;-48
2022/01/30 12:34:04;;;;;;;20.00;2.80;;;;;;;;;;5010828;28;20021;-51
2022/01/30 12:36:35;;;;;;;10.88;1.95;;;;;;;;;;5009200;28;20517;-47
2022/01/30 12:39:06;;;;;;;17.70;2.10;;;;;;;;;;5009260;28;20490;-52
2022/01/30 12:41:32;;;;;;;15.95;3.20;;;;;;;;;;5011387;28;20362;-55
2022/01/30 12:44:06;;;;;;;13.80;2.25;;;;;;;;;;5009046;28;20101;-55
2022/01/30 12:46:35;;;;;;;8.88;1.80;;;;;;;;;;4990667;28;20061;-56
2022/01/30 12:49:10;;;;;;;11.75;2.05;;;;;;;;;;5009575;28;20313;-49
2022/01/30 12:51:38;;;;;;;22.33;2.35;;;;;;;;;;5009744;28;20498;-52
2022/01/30 12:54:05;;;;;;;16.83;2.50;;;;;;;;;;5007319;28;20069;-49
2022/01/30 12:56:31;;;;;;;20.42;2.20;;;;;;;;;;5007695;28;20060;-49
2022/01/30 12:59:06;;;;;;;18.85;2.45;;;;;;;;;;5008249;28;20065;-47
2022/01/30 13:01:32;;;;;;;11.32;1.95;;;;;;;;;;5009720;28;20525;-47
2022/01/30 13:04:06;;;;;;;17.48;2.53;;;;;;;;;;5007566;28;20026;-51
2022/01/30 13:06:33;;;;;;;15.07;2.75;;;;;;;;;;5009049;28;20037;-52
2022/01/30 13:08:59;;;;;;;21.30;2.78;;;;;;;;;;5011695;28;20040;-49
2022/01/30 13:11:25;;;;;;;19.00;2.72;;;;;;;;;;5008631;28;20022;-52
2022/01/30 13:13:56;;;;;;;10.85;2.42;;;;;;;;;;5012955;28;20021;-48
2022/01/30 13:16:23;;;;;;;18.13;2.50;;;;;;;;;;4989476;28;20056;-54
2022/01/30 13:18:49;;;;;;;19.27;2.60;;;;;;;;;;5009514;28;21176;-46
2022/01/30 13:21:14;;;;;;;13.43;2.10;;;;;;;;;;5009245;28;20026;-50
2022/01/30 13:23:45;;;;;;;20.77;2.63;;;;;;;;;;5007037;28;20061;-50
2022/01/30 13:26:11;;;;;;;9.02;1.70;;;;;;;;;;5006416;28;20060;-48
2022/01/30 13:28:36;;;;;;;10.52;1.75;;;;;;;;;;5004141;28;20065;-49
2022/01/30 13:31:13;;;;;;;11.75;2.08;;;;;;;;;;4652937;28;10000680;-49
2022/01/30 13:33:38;;;;;;;18.45;2.40;;;;;;;;;;1032835;28;10001982;-47
2022/01/30 13:36:04;;;;;;;11.90;2.15;;;;;;;;;;5007433;28;20474;-49
2022/01/30 13:38:32;;;;;;;19.50;3.20;;;;;;;;;;5004980;28;20041;-52
2022/01/30 13:41:02;;;;;;;16.25;2.75;;;;;;;;;;5007252;28;20041;-52
2022/01/30 13:43:34;;;;;;;19.70;2.75;;;;;;;;;;5009370;28;20029;-47
2022/01/30 13:48:44;;;;;;;;;;;;;;;;;;5008785;28;20036;-46
2022/01/30 13:51:09;;;;;;;15.60;2.03;;;;;;;;;;5006092;28;19918;-52
2022/01/30 13:53:39;;;;;;;18.48;2.42;;;;;;;;;;5009339;28;20025;-50
2022/01/30 13:56:09;;;;;;;15.13;2.20;;;;;;;;;;5004552;28;20414;-53
2022/01/30 13:58:37;;;;;;;16.55;3.22;;;;;;;;;;5007931;28;20037;-51
2022/01/30 14:01:08;;;;;;;14.95;2.35;;;;;;;;;;5005989;28;20049;-50
2022/01/30 14:03:37;;;;;;;16.83;2.33;;;;;;;;;;5008512;28;20139;-48
2022/01/30 14:06:26;;;;;;;11.77;2.25;;;;;;;;;;5009483;28;20029;-47
2022/01/30 14:08:58;;;;;;;12.10;2.30;;;;;;;;;;5008885;28;20055;-47
2022/01/30 14:11:29;;;;;;;14.90;2.53;;;;;;;;;;5008132;28;20025;-50
2022/01/30 14:14:02;;;;;;;11.18;2.13;;;;;;;;;;5008084;28;20083;-52
2022/01/30 14:16:50;;;;;;;14.45;2.45;;;;;;;;;;4990983;28;20044;-49
2022/01/30 14:19:20;;;;;;;14.13;2.75;;;;;;;;;;5008190;28;20096;-53
2022/01/30 14:21:48;;;;;;;16.90;3.20;;;;;;;;;;5008944;28;20033;-50
2022/01/30 14:24:16;;;;;;;20.92;3.17;;;;;;;;;;5006995;28;20034;-52
2022/01/30 14:26:41;;;;;;;10.73;2.67;;;;;;;;;;5010848;28;20379;-50
2022/01/30 14:29:14;;;;;;;19.30;3.08;;;;;;;;;;5004025;28;20026;-47
2022/01/30 14:31:57;;;;;;;14.05;2.88;;;;;;;;;;5007940;28;20034;-51
2022/01/30 14:34:25;;;;;;;19.05;2.50;;;;;;;;;;5007086;28;20034;-46
2022/01/30 14:36:52;;;;;;;18.23;2.75;;;;;;;;;;5007888;28;20462;-51
2022/01/30 14:39:17;;;;;;;12.18;1.70;;;;;;;;;;5006587;28;20069;-49
2022/01/30 14:41:43;;;;;;;14.80;2.53;;;;;;;;;;5009977;28;20065;-48
2022/01/30 14:44:08;;;;;;;11.10;2.40;;;;;;;;;;5011963;28;20030;-49
2022/01/30 14:46:34;;;;;;;17.58;2.45;;;;;;;;;;5010611;28;20603;-50
2022/01/30 14:48:59;;;;;;;16.50;2.25;;;;;;;;;;5013171;28;20025;-55
2022/01/30 14:51:25;;;;;;;11.77;2.00;;;;;;;;;;5010707;28;20029;-47
2022/01/30 14:53:50;;;;;;;5.57;1.52;;;;;;;;;;5012014;28;20116;-51
2022/01/30 14:56:16;;;;;;;17.33;2.50;;;;;;;;;;5013947;28;20450;-52
2022/01/30 14:58:41;;;;;;;14.43;2.45;;;;;;;;;;4993740;28;20030;-49
2022/01/30 15:01:07;;;;;;;12.45;2.40;;;;;;;;;;5010239;28;20095;-49
2022/01/30 15:03:33;;;;;;;12.43;2.78;;;;;;;;;;5010879;28;20026;-47
2022/01/30 15:06:00;;;;;;;13.13;2.33;;;;;;;;;;5012656;28;20033;-52
2022/01/30 15:08:26;;;;;;;14.73;2.35;;;;;;;;;;5007529;28;20109;-49
2022/01/30 15:10:52;;;;;;;11.02;2.15;;;;;;;;;;5012005;28;20109;-49
2022/01/30 15:13:20;;;;;;;13.63;2.47;;;;;;;;;;5006224;28;20061;-50
2022/01/30 15:15:46;;;;;;;11.38;2.35;;;;;;;;;;5007852;28;20026;-53
2022/01/30 15:18:22;;;;;;;11.93;2.20;;;;;;;;;;5011465;28;20061;-49
2022/01/30 15:20:48;;;;;;;13.73;2.25;;;;;;;;;;5013037;28;20029;-53
2022/01/30 15:23:13;;;;;;;16.85;3.10;;;;;;;;;;5007784;28;20461;-52
2022/01/30 15:25:39;;;;;;;13.50;2.40;;;;;;;;;;5010703;28;21275;-48
2022/01/30 15:28:04;;;;;;;17.33;2.40;;;;;;;;;;5011964;28;20117;-49
2022/01/30 15:30:30;;;;;;;15.38;2.83;;;;;;;;;;5009371;28;20056;-47
2022/01/30 15:32:55;;;;;;;18.23;2.75;;;;;;;;;;5009406;28;20065;-50
2022/01/30 15:35:21;;;;;;;14.05;3.08;;;;;;;;;;5010049;28;20030;-49
2022/01/30 15:37:46;;;;;;;17.85;3.00;;;;;;;;;;5008600;28;20037;-49
2022/01/30 15:40:13;;;;;;;21.05;3.00;;;;;;;;;;4991813;28;20025;-51